Time;durP1;ratioP1;P1;durP2;ratioP2;P2;SDS_P1;SDS_P2;PMS_P1;PMS_P2;Temp;Humidity;BMP_temperature;BMP_pressure;BME280_temperature;BME280_humidity;BME280_pressure;Samples;Min_cycle;Max_cycle;Signal;HPM_P1;HPM_P2
2022/11/10 00:00:38;;;;;;;6.9;5.1;;;;;;;11.58;90.1084;940.7648;;;;
2022/11/10 00:03:04;;;;;;;7.2;5.4;;;;;;;11.59;89.96094;940.8486;;;;
2022/11/10 00:05:38;;;;;;;14.8;8.3;;;;;;;11.52;90.59863;940.8774;;;;
2022/11/10 00:08:08;;;;;;;11.2;7.5;;;;;;;11.44;91.15527;940.8926;;;;
2022/11/10 00:11:00;;;;;;;9.8;7.2;;;;;;;11.36;91.91602;940.8803;;;;
2022/11/10 00:16:59;;;;;;;11.1;6.8;;;;;;;11.29;92.70215;940.941;;;;
2022/11/10 00:22:43;;;;;;;7.7;5.3;;;;;;;10.72;96.47266;940.9627;;;;
2022/11/10 00:25:18;;;;;;;6.9;5.4;;;;;;;10.82;96.61133;941.0392;;;;
2022/11/10 00:27:44;;;;;;;7.2;5;;;;;;;10.94;96.10059;941.079;;;;
2022/11/10 00:30:09;;;;;;;7.9;5.6;;;;;;;11.01;95.5791;941.073;;;;
2022/11/10 00:32:37;;;;;;;8.3;5.5;;;;;;;11.09;95.11719;940.9998;;;;
2022/11/10 00:35:02;;;;;;;6;5;;;;;;;11.13;94.57617;941.0823;;;;
2022/11/10 00:37:27;;;;;;;8.7;5.7;;;;;;;11.19;94.13086;941.0782;;;;
2022/11/10 00:39:54;;;;;;;8;5.5;;;;;;;11.23;94.04883;941.0909;;;;
2022/11/10 00:42:19;;;;;;;7.4;5.3;;;;;;;11.24;94.07422;941.1078;;;;
2022/11/10 00:44:44;;;;;;;6.3;5.3;;;;;;;11.27;93.7959;941.1967;;;;
2022/11/10 00:47:11;;;;;;;7.8;5.2;;;;;;;11.3;93.57324;941.2503;;;;
2022/11/10 00:49:36;;;;;;;6.6;5;;;;;;;11.31;93.46094;941.2823;;;;
2022/11/10 00:52:02;;;;;;;6.9;5.1;;;;;;;11.35;93.20508;941.298;;;;
2022/11/10 00:54:27;;;;;;;6.9;5.6;;;;;;;11.37;92.90234;941.2775;;;;
2022/11/10 00:56:54;;;;;;;9.1;5.5;;;;;;;11.4;92.75879;941.348;;;;
2022/11/10 00:59:19;;;;;;;7.8;5.5;;;;;;;11.39;92.5625;941.3909;;;;
2022/11/10 01:02:08;;;;;;;7.4;5.6;;;;;;;11.39;92.65625;941.3727;;;;
2022/11/10 01:04:33;;;;;;;8.2;5.5;;;;;;;11.41;92.55762;941.4066;;;;
2022/11/10 01:06:58;;;;;;;6.8;5.4;;;;;;;11.43;92.48047;941.402;;;;
2022/11/10 01:09:25;;;;;;;7.4;5.5;;;;;;;11.47;92.37207;941.4407;;;;
2022/11/10 01:11:50;;;;;;;6.5;4.9;;;;;;;11.51;92.29004;941.4858;;;;
2022/11/10 01:14:15;;;;;;;7.5;5;;;;;;;11.52;92.39551;941.4979;;;;
2022/11/10 01:16:40;;;;;;;7.3;4.4;;;;;;;11.45;92.74609;941.47;;;;
2022/11/10 01:19:08;;;;;;;6.4;5.4;;;;;;;11.39;93.29492;941.4659;;;;
2022/11/10 01:21:33;;;;;;;7.4;5.7;;;;;;;11.39;93.5332;941.5153;;;;
2022/11/10 01:23:58;;;;;;;6.7;5;;;;;;;11.41;93.4834;941.488;;;;
2022/11/10 01:26:24;;;;;;;7;5.5;;;;;;;11.45;92.81445;941.5417;;;;
2022/11/10 01:28:49;;;;;;;7.3;5.5;;;;;;;11.46;92.69238;941.5611;;;;
2022/11/10 01:31:17;;;;;;;8;5.5;;;;;;;11.43;92.69824;941.5472;;;;
2022/11/10 01:33:42;;;;;;;6.4;4.7;;;;;;;11.45;92.73438;941.533;;;;
2022/11/10 01:36:09;;;;;;;7.8;5.4;;;;;;;11.45;92.68848;941.5098;;;;
2022/11/10 01:38:34;;;;;;;6.8;5.2;;;;;;;11.4;93.2168;941.5154;;;;
2022/11/10 01:40:59;;;;;;;6.4;4.6;;;;;;;11.37;93.45117;941.5438;;;;
2022/11/10 01:43:25;;;;;;;6.5;4.7;;;;;;;11.31;93.90625;941.5957;;;;
2022/11/10 01:45:54;;;;;;;6.7;4.6;;;;;;;11.18;94.51953;941.6082;;;;
2022/11/10 01:48:19;;;;;;;5.7;4.4;;;;;;;11.15;95.08301;941.5767;;;;
2022/11/10 01:50:44;;;;;;;5.3;3.9;;;;;;;11.07;95.57031;941.6428;;;;
2022/11/10 01:53:17;;;;;;;4.4;4;;;;;;;11.06;95.94336;941.6322;;;;
2022/11/10 01:55:42;;;;;;;6.5;4.1;;;;;;;11.02;96.11816;941.6995;;;;
2022/11/10 01:58:09;;;;;;;7.3;4.6;;;;;;;11.11;95.47559;941.6503;;;;
2022/11/10 02:00:34;;;;;;;6.4;4.5;;;;;;;11.16;94.93848;941.671;;;;
2022/11/10 02:03:02;;;;;;;5.2;4.7;;;;;;;11.26;94.38672;941.6525;;;;
2022/11/10 02:06:37;;;;;;;6.2;4.4;;;;;;;11.34;94.07227;941.6478;;;;
2022/11/10 02:09:02;;;;;;;6.4;4.3;;;;;;;11.41;93.17285;941.7795;;;;
2022/11/10 02:11:27;;;;;;;5.5;4.2;;;;;;;11.45;92.88281;941.7228;;;;
2022/11/10 02:13:53;;;;;;;5.4;4.6;;;;;;;11.46;92.85254;941.7516;;;;
2022/11/10 02:16:18;;;;;;;6.1;4;;;;;;;11.44;93.00879;941.765;;;;
2022/11/10 02:18:43;;;;;;;5.7;4.3;;;;;;;11.43;93.16699;941.7576;;;;
2022/11/10 02:21:12;;;;;;;5.6;4.3;;;;;;;11.44;93.49902;941.6804;;;;
2022/11/10 02:23:37;;;;;;;5.2;4.5;;;;;;;11.38;93.69141;941.7775;;;;
2022/11/10 02:26:02;;;;;;;5.2;4.4;;;;;;;11.35;94.00586;941.7397;;;;
2022/11/10 02:28:27;;;;;;;6.5;4;;;;;;;11.33;94.18262;941.8239;;;;
2022/11/10 02:31:22;;;;;;;5.9;4;;;;;;;11.3;94.04199;941.791;;;;
2022/11/10 02:33:50;;;;;;;4.7;3.7;;;;;;;11.24;94.34863;941.7703;;;;
2022/11/10 02:36:15;;;;;;;4.4;3.6;;;;;;;11.14;94.94629;941.752;;;;
2022/11/10 02:38:42;;;;;;;4.2;3.6;;;;;;;11.13;95.25293;941.7933;;;;
2022/11/10 02:41:07;;;;;;;4.1;3.5;;;;;;;11.14;95.28906;941.7902;;;;
2022/11/10 02:43:36;;;;;;;4.8;3.1;;;;;;;11.11;95.47559;941.7953;;;;
2022/11/10 02:46:06;;;;;;;3.3;3;;;;;;;11.15;95.41504;941.8787;;;;
2022/11/10 02:48:35;;;;;;;5.8;3.9;;;;;;;11.16;94.96191;941.8876;;;;
2022/11/10 02:51:12;;;;;;;4.6;3.5;;;;;;;11.18;94.6543;941.8959;;;;
2022/11/10 02:53:37;;;;;;;3.6;3.3;;;;;;;11.23;94.15234;941.9359;;;;
2022/11/10 02:59:44;;;;;;;4.7;3.7;;;;;;;11.19;94.65918;941.9288;;;;
2022/11/10 03:02:10;;;;;;;4.3;3.2;;;;;;;11.23;94.27734;942.0268;;;;
2022/11/10 03:04:35;;;;;;;4.4;3.3;;;;;;;11.25;94.11035;942.0773;;;;
2022/11/10 03:07:45;;;;;;;3.8;3.2;;;;;;;11.28;94.00195;942.0689;;;;
2022/11/10 03:10:14;;;;;;;5.1;3.4;;;;;;;11.29;93.75391;942.0913;;;;
2022/11/10 03:12:39;;;;;;;4.3;3.5;;;;;;;11.32;93.75977;942.1117;;;;
2022/11/10 03:15:15;;;;;;;4.8;3.4;;;;;;;11.28;94.2666;942.1766;;;;
2022/11/10 03:17:41;;;;;;;3.8;3.4;;;;;;;11.23;94.79004;942.1838;;;;
2022/11/10 03:20:06;;;;;;;3.9;3.3;;;;;;;11.2;94.86621;942.231;;;;
2022/11/10 03:22:37;;;;;;;4.2;3;;;;;;;11.24;94.43945;942.2566;;;;
2022/11/10 03:25:11;;;;;;;4.2;3.4;;;;;;;11.24;94.00488;942.3059;;;;
2022/11/10 03:27:41;;;;;;;4.6;3.6;;;;;;;11.27;93.78418;942.3032;;;;
2022/11/10 03:30:12;;;;;;;4;3.6;;;;;;;11.3;93.61914;942.3066;;;;
2022/11/10 03:34:01;;;;;;;3.7;3.2;;;;;;;11.31;93.80371;942.4137;;;;
2022/11/10 03:36:09;;;;;;;6.3;4.4;;;;;;;11.12;94.76855;942.4267;;;;
2022/11/10 03:38:41;;;;;;;4.2;3.4;;;;;;;11.11;94.92676;942.4584;;;;
2022/11/10 03:41:11;;;;;;;6.2;4.2;;;;;;;11.17;94.61816;942.4911;;;;
2022/11/10 03:43:42;;;;;;;5.5;3.9;;;;;;;11.13;94.37207;942.5186;;;;
2022/11/10 03:46:12;;;;;;;5.6;3.9;;;;;;;11.1;94.83301;942.4919;;;;
2022/11/10 03:48:41;;;;;;;5.3;4;;;;;;;11.14;94.91016;942.5944;;;;
2022/11/10 03:51:06;;;;;;;5;3.9;;;;;;;11.15;94.68359;942.5969;;;;
2022/11/10 03:53:35;;;;;;;4.2;3.7;;;;;;;11.19;94.30469;942.6517;;;;
2022/11/10 03:56:00;;;;;;;5.9;4.3;;;;;;;11.21;94.09082;942.6878;;;;
2022/11/10 03:59:12;;;;;;;5.5;3.9;;;;;;;11.21;94.09082;942.7253;;;;
2022/11/10 04:03:14;;;;;;;4.8;3.8;;;;;;;11.21;93.9668;942.8206;;;;
2022/11/10 04:10:32;;;;;;;4;3.3;;;;;;;11.22;93.12109;942.9593;;;;
2022/11/10 04:15:44;;;;;;;4.3;3.5;;;;;;;11.2;92.91113;943.0162;;;;
2022/11/10 04:17:54;;;;;;;4.1;3.6;;;;;;;11.18;93.14551;943.0126;;;;
2022/11/10 04:20:19;;;;;;;6.5;3.8;;;;;;;11.17;93.49805;943.0483;;;;
2022/11/10 04:25:17;;;;;;;4.2;3.8;;;;;;;11.11;94.49219;943.1;;;;
2022/11/10 04:27:47;;;;;;;3.7;3.1;;;;;;;11.09;95.11719;943.1071;;;;
2022/11/10 04:30:22;;;;;;;4.6;3.4;;;;;;;11.13;95.0332;943.0812;;;;
2022/11/10 04:35:53;;;;;;;4.1;3;;;;;;;11.1;94.93457;943.1876;;;;
2022/11/10 04:38:18;;;;;;;4.2;3.1;;;;;;;11.16;95.00684;943.2675;;;;
2022/11/10 04:40:47;;;;;;;4;3.3;;;;;;;11.22;94.7793;943.3372;;;;
2022/11/10 04:43:43;;;;;;;4.7;3.4;;;;;;;11.2;94.69336;943.3437;;;;
2022/11/10 04:46:12;;;;;;;4;3;;;;;;;11.18;94.89453;943.3769;;;;
2022/11/10 04:48:37;;;;;;;3.6;3;;;;;;;11.12;95.30566;943.4461;;;;
2022/11/10 04:51:07;;;;;;;3.6;3;;;;;;;10.98;96.09961;943.5019;;;;
2022/11/10 04:53:32;;;;;;;4.9;3.1;;;;;;;10.88;96.98926;943.5391;;;;
2022/11/10 04:56:01;;;;;;;3.8;3;;;;;;;10.9;97.34766;943.6;;;;
2022/11/10 04:58:30;;;;;;;4.6;3.1;;;;;;;10.88;97.75488;943.5917;;;;
2022/11/10 05:00:55;;;;;;;1.7;1.4;;;;;;;10.8;96.6416;943.5631;;;;
2022/11/10 05:06:49;;;;;;;1.2;0.6;;;;;;;10.68;93.70117;943.6096;;;;
2022/11/10 05:09:18;;;;;;;0.8;0.7;;;;;;;10.58;93.05371;943.6984;;;;
2022/11/10 05:11:48;;;;;;;2;0.6;;;;;;;10.59;92.75684;943.7749;;;;
2022/11/10 05:14:13;;;;;;;1.3;0.6;;;;;;;10.46;92.28418;943.7878;;;;
2022/11/10 05:16:46;;;;;;;2;0.6;;;;;;;10.57;92.17969;943.8358;;;;
2022/11/10 05:19:16;;;;;;;1.5;0.8;;;;;;;10.5;91.60645;943.8497;;;;
2022/11/10 05:21:46;;;;;;;3.5;0.8;;;;;;;10.33;92.78027;943.8869;;;;
2022/11/10 05:24:14;;;;;;;1.7;0.8;;;;;;;10.19;93.43555;943.9034;;;;
2022/11/10 05:26:39;;;;;;;1.7;0.9;;;;;;;10.24;93.42285;943.9439;;;;
2022/11/10 05:29:11;;;;;;;2.7;0.9;;;;;;;10.11;93.63281;944.0481;;;;
2022/11/10 05:31:40;;;;;;;2;0.7;;;;;;;10.14;93.81348;944.0943;;;;
2022/11/10 05:34:08;;;;;;;0.8;0.6;;;;;;;10.21;93.75879;944.1039;;;;
2022/11/10 05:36:33;;;;;;;0.8;0.6;;;;;;;10.24;93.36719;944.155;;;;
2022/11/10 05:39:03;;;;;;;0.6;0.6;;;;;;;10.28;93.35254;944.2003;;;;
2022/11/10 05:41:28;;;;;;;1.3;0.8;;;;;;;10.16;92.76855;944.2308;;;;
2022/11/10 05:43:59;;;;;;;0.7;0.6;;;;;;;10.3;92.63965;944.2867;;;;
2022/11/10 05:46:30;;;;;;;1.6;0.8;;;;;;;10.29;92.44336;944.3025;;;;
2022/11/10 05:49:01;;;;;;;1.9;0.8;;;;;;;10.36;92.02344;944.3603;;;;
2022/11/10 06:00:12;;;;;;;1.5;0.7;;;;;;;10.5;91.60645;944.5019;;;;
2022/11/10 06:02:42;;;;;;;0.6;0.6;;;;;;;10.55;91.28711;944.608;;;;
2022/11/10 06:09:04;;;;;;;1;0.7;;;;;;;10.38;92.82617;944.7419;;;;
2022/11/10 06:11:34;;;;;;;2.9;0.7;;;;;;;10.38;92.33496;944.8008;;;;
2022/11/10 06:13:59;;;;;;;0.5;0.5;;;;;;;10.36;92.85449;944.8203;;;;
2022/11/10 06:16:30;;;;;;;0.5;0.5;;;;;;;10.45;92.7959;944.9094;;;;
2022/11/10 06:18:57;;;;;;;2;0.6;;;;;;;10.56;92.19141;945.0104;;;;
2022/11/10 06:21:22;;;;;;;2.8;0.5;;;;;;;10.61;91.45898;945.0837;;;;
2022/11/10 06:24:26;;;;;;;0.8;0.5;;;;;;;10.64;91.21484;945.1325;;;;
2022/11/10 06:26:52;;;;;;;2.5;1.2;;;;;;;10.65;91.34277;945.2513;;;;
2022/11/10 06:29:20;;;;;;;1;0.9;;;;;;;10.49;91.66211;945.3656;;;;
2022/11/10 06:31:45;;;;;;;1.5;1.4;;;;;;;10.32;91.5;945.4644;;;;
2022/11/10 06:34:27;;;;;;;1.8;1.1;;;;;;;10.35;91.61035;945.4174;;;;
2022/11/10 06:36:57;;;;;;;1.9;1.3;;;;;;;10.32;91.65039;945.5966;;;;
2022/11/10 06:43:09;;;;;;;2;1.3;;;;;;;10.51;92.14551;945.6367;;;;
2022/11/10 06:45:37;;;;;;;2.1;1.3;;;;;;;10.6;92.15332;945.7222;;;;
2022/11/10 06:48:12;;;;;;;2.4;1.5;;;;;;;10.64;92.26563;945.7339;;;;
2022/11/10 06:52:04;;;;;;;1.5;1.3;;;;;;;10.72;91.98633;945.7889;;;;
2022/11/10 06:54:14;;;;;;;1.9;1.4;;;;;;;10.83;92.31738;945.9325;;;;
2022/11/10 06:56:40;;;;;;;1.2;1.1;;;;;;;10.87;92.59961;945.9572;;;;
2022/11/10 07:02:52;;;;;;;3.9;1.8;;;;;;;10.93;92.36328;946.0556;;;;
2022/11/10 07:05:20;;;;;;;1.4;1.3;;;;;;;10.94;92.4209;946.1483;;;;
2022/11/10 07:07:45;;;;;;;2.3;1.7;;;;;;;10.9;92.60742;946.1299;;;;
2022/11/10 07:10:10;;;;;;;3.2;2.5;;;;;;;10.92;92.61133;946.1438;;;;
2022/11/10 07:12:38;;;;;;;3.7;2.2;;;;;;;10.98;92.33887;946.1036;;;;
2022/11/10 07:15:04;;;;;;;5.4;2.4;;;;;;;11.03;92.12012;946.1711;;;;
2022/11/10 07:17:28;;;;;;;2.3;2;;;;;;;11.11;91.65723;946.1973;;;;
2022/11/10 07:19:55;;;;;;;3.5;2.5;;;;;;;11.17;91.65723;946.2416;;;;
2022/11/10 07:22:21;;;;;;;4.4;2.8;;;;;;;11.17;92.08008;946.2686;;;;
2022/11/10 07:24:49;;;;;;;4.1;2.4;;;;;;;11.16;92.27441;946.3013;;;;
2022/11/10 07:27:14;;;;;;;2.8;2.2;;;;;;;11.11;92.74316;946.3736;;;;
2022/11/10 07:29:41;;;;;;;3.7;2.3;;;;;;;11.07;92.52734;946.3926;;;;
2022/11/10 07:32:06;;;;;;;3.1;2.3;;;;;;;11.09;92.59082;946.4377;;;;
2022/11/10 07:34:35;;;;;;;4.4;2.3;;;;;;;10.97;93.12402;946.4246;;;;
2022/11/10 07:37:00;;;;;;;3;2.5;;;;;;;10.87;93.76465;946.4925;;;;
2022/11/10 07:39:27;;;;;;;4.6;3.2;;;;;;;10.72;94.30273;946.5552;;;;
2022/11/10 07:41:52;;;;;;;4.2;3.3;;;;;;;10.67;94.64746;946.5708;;;;
2022/11/10 07:44:18;;;;;;;5.5;3;;;;;;;10.8;94.7334;946.6055;;;;
2022/11/10 07:46:43;;;;;;;8.3;3.5;;;;;;;10.95;94.45703;946.5891;;;;
2022/11/10 07:49:11;;;;;;;3.6;2.6;;;;;;;11.15;94.31738;946.5817;;;;
2022/11/10 07:51:41;;;;;;;3.5;2.7;;;;;;;11.15;92.09863;946.5959;;;;
2022/11/10 07:54:06;;;;;;;4;2.9;;;;;;;11.11;93.28223;946.5928;;;;
2022/11/10 07:56:33;;;;;;;5.9;3.7;;;;;;;11.5;93.82227;946.5483;;;;
2022/11/10 07:58:58;;;;;;;4.4;3.1;;;;;;;11.69;91.13867;946.5403;;;;
2022/11/10 08:01:23;;;;;;;3.6;2.6;;;;;;;12.02;88.6875;946.5016;;;;
2022/11/10 08:03:48;;;;;;;3.2;2.4;;;;;;;11.97;87.42773;946.5226;;;;
2022/11/10 08:06:17;;;;;;;2.9;2.1;;;;;;;12.66;89.35645;946.4653;;;;
2022/11/10 08:08:42;;;;;;;2.3;1.2;;;;;;;13.28;83.0957;946.4988;;;;
2022/11/10 08:11:09;;;;;;;1.4;1.1;;;;;;;13.84;80.18848;946.4772;;;;
2022/11/10 08:13:34;;;;;;;2.2;1.5;;;;;;;14.06;78.43457;946.5051;;;;
2022/11/10 08:16:04;;;;;;;2.1;1.4;;;;;;;14.24;77.2334;946.5607;;;;
2022/11/10 08:18:29;;;;;;;1.6;1.1;;;;;;;14.31;75.63379;946.5181;;;;
2022/11/10 08:20:58;;;;;;;2.5;1.4;;;;;;;14.21;74.52246;946.6475;;;;
2022/11/10 08:23:25;;;;;;;1.4;1.1;;;;;;;14.08;75.7666;946.7008;;;;
2022/11/10 08:25:52;;;;;;;5;2.6;;;;;;;13.63;79.37012;946.758;;;;
2022/11/10 08:28:15;;;;;;;4.1;2.3;;;;;;;13.32;81.29883;946.7369;;;;
2022/11/10 08:30:43;;;;;;;2.3;1.7;;;;;;;13.15;81.29004;946.7461;;;;
2022/11/10 08:33:08;;;;;;;2.6;1.7;;;;;;;13.34;81.6123;946.7955;;;;
2022/11/10 08:35:36;;;;;;;2.3;1.7;;;;;;;13.34;81.17578;946.8356;;;;
2022/11/10 08:38:01;;;;;;;2;1.5;;;;;;;13.36;80.61719;946.8909;;;;
2022/11/10 08:40:27;;;;;;;1.6;1.1;;;;;;;13.23;81.16895;946.9006;;;;
2022/11/10 08:42:51;;;;;;;1.2;1.1;;;;;;;13.11;81.27148;946.8959;;;;
2022/11/10 08:45:16;;;;;;;1.9;1;;;;;;;12.73;82.2793;946.9803;;;;
2022/11/10 08:47:43;;;;;;;1.9;1.1;;;;;;;12.37;82.54297;946.9867;;;;
2022/11/10 08:50:07;;;;;;;2.6;1.3;;;;;;;12.22;84.72656;947.0545;;;;
2022/11/10 08:52:37;;;;;;;1.7;1.3;;;;;;;12.19;85.1582;947.0977;;;;
2022/11/10 08:55:02;;;;;;;2.6;1.6;;;;;;;11.84;85.21387;947.0901;;;;
2022/11/10 08:57:32;;;;;;;1.8;1.3;;;;;;;11.33;86.76172;947.0999;;;;
2022/11/10 08:59:58;;;;;;;3.7;2.1;;;;;;;11.62;86.35156;947.0728;;;;
2022/11/10 09:02:22;;;;;;;2;1.7;;;;;;;11.82;86.64355;947.0564;;;;
2022/11/10 09:04:53;;;;;;;3;2.1;;;;;;;11.99;87.47949;947.0404;;;;
2022/11/10 09:07:18;;;;;;;3.9;2.3;;;;;;;11.63;87.8623;947.0977;;;;
2022/11/10 09:09:43;;;;;;;3.7;2.4;;;;;;;11.46;89.42969;947.1122;;;;
2022/11/10 09:12:08;;;;;;;1.3;1;;;;;;;11.21;88.37109;947.0339;;;;
2022/11/10 09:14:35;;;;;;;3;1.9;;;;;;;11.09;88.26953;947.1287;;;;
2022/11/10 09:17:00;;;;;;;1.2;1.1;;;;;;;11.23;88.13867;947.1608;;;;
2022/11/10 09:19:26;;;;;;;0.8;0.8;;;;;;;11.3;88.27734;947.2355;;;;
2022/11/10 09:21:53;;;;;;;1.4;0.8;;;;;;;11.42;87.84375;947.1808;;;;
2022/11/10 09:24:18;;;;;;;0.6;0.6;;;;;;;11.48;86.82617;947.2396;;;;
2022/11/10 09:26:46;;;;;;;1.1;0.6;;;;;;;11.7;85.58984;947.269;;;;
2022/11/10 09:29:10;;;;;;;2;1.2;;;;;;;11.81;84.60156;947.3024;;;;
2022/11/10 09:31:37;;;;;;;0.8;0.6;;;;;;;11.68;82.88281;947.3021;;;;
2022/11/10 09:34:07;;;;;;;0.5;0.4;;;;;;;11.45;84.35938;947.3273;;;;
2022/11/10 09:36:33;;;;;;;1.4;0.5;;;;;;;11.65;84.90332;947.3805;;;;
2022/11/10 09:38:58;;;;;;;1.5;0.7;;;;;;;11.82;85.56641;947.4084;;;;
2022/11/10 09:41:28;;;;;;;0.5;0.5;;;;;;;11.96;84.97461;947.4285;;;;
2022/11/10 09:43:50;;;;;;;1;0.5;;;;;;;12.15;84.50977;947.3956;;;;
2022/11/10 09:46:18;;;;;;;0.9;0.7;;;;;;;12.22;84.75098;947.473;;;;
2022/11/10 09:48:43;;;;;;;1.4;0.6;;;;;;;12.34;84.72852;947.4927;;;;
2022/11/10 09:51:08;;;;;;;2;0.8;;;;;;;12.39;83.17969;947.4536;;;;
2022/11/10 09:53:36;;;;;;;0.7;0.5;;;;;;;12.59;82.31055;947.4636;;;;
2022/11/10 09:56:00;;;;;;;0.4;0.4;;;;;;;12.79;81.46484;947.5206;;;;
2022/11/10 09:58:26;;;;;;;0.6;0.5;;;;;;;12.93;79.49219;947.5295;;;;
2022/11/10 10:00:51;;;;;;;1.1;0.5;;;;;;;13.05;77.5752;947.5708;;;;
2022/11/10 10:03:18;;;;;;;0.4;0.4;;;;;;;13.54;74.92578;947.5425;;;;
2022/11/10 10:05:52;;;;;;;0.5;0.5;;;;;;;13.97;72.58301;947.5627;;;;
2022/11/10 10:08:18;;;;;;;1.1;0.5;;;;;;;14.65;71.10547;947.563;;;;
2022/11/10 10:10:45;;;;;;;0.8;0.4;;;;;;;15.31;67.68164;947.5695;;;;
2022/11/10 10:13:10;;;;;;;0.4;0.4;;;;;;;15.28;67.76758;947.5589;;;;
2022/11/10 10:15:37;;;;;;;1.8;0.4;;;;;;;14.99;69.33887;947.517;;;;
2022/11/10 10:18:02;;;;;;;1.6;0.8;;;;;;;14.85;68.1875;947.4927;;;;
2022/11/10 10:20:27;;;;;;;0.8;0.5;;;;;;;14.72;68.92578;947.5411;;;;
2022/11/10 10:22:52;;;;;;;1.3;0.6;;;;;;;14.67;69.33496;947.5366;;;;
2022/11/10 10:25:17;;;;;;;0.6;0.6;;;;;;;14.31;69.4375;947.5893;;;;
2022/11/10 10:27:45;;;;;;;0.7;0.7;;;;;;;14.2;69.88086;947.6063;;;;
2022/11/10 10:30:11;;;;;;;0.7;0.5;;;;;;;14.06;68.9375;947.5744;;;;
2022/11/10 10:32:36;;;;;;;0.4;0.4;;;;;;;13.88;69.97949;947.5449;;;;
2022/11/10 10:35:01;;;;;;;0.6;0.5;;;;;;;13.63;71.64063;947.4919;;;;
2022/11/10 10:37:26;;;;;;;0.5;0.5;;;;;;;13.66;68.36914;947.3738;;;;
2022/11/10 10:39:54;;;;;;;0.5;0.5;;;;;;;13.64;69.38867;947.3512;;;;
2022/11/10 10:42:19;;;;;;;0.7;0.4;;;;;;;13.7;67.33789;947.3694;;;;
2022/11/10 10:44:45;;;;;;;0.3;0.3;;;;;;;13.85;66.31543;947.474;;;;
2022/11/10 10:47:10;;;;;;;0.3;0.3;;;;;;;13.79;67.33105;947.4266;;;;
2022/11/10 10:49:37;;;;;;;0.4;0.4;;;;;;;13.88;65.1123;947.5217;;;;
2022/11/10 10:52:01;;;;;;;0.4;0.3;;;;;;;13.99;65.1748;947.498;;;;
2022/11/10 10:54:29;;;;;;;0.7;0.4;;;;;;;14.21;65.37891;947.5583;;;;
2022/11/10 10:56:55;;;;;;;0.6;0.5;;;;;;;14.03;69.16211;947.5997;;;;
2022/11/10 10:59:23;;;;;;;0.4;0.4;;;;;;;14.1;68.18359;947.4771;;;;
2022/11/10 11:01:50;;;;;;;0.5;0.5;;;;;;;14.16;72.25781;947.5178;;;;
2022/11/10 11:04:15;;;;;;;0.5;0.3;;;;;;;14.23;67.91699;947.5051;;;;
2022/11/10 11:06:41;;;;;;;0.3;0.3;;;;;;;14.29;67.6377;947.4633;;;;
2022/11/10 11:09:06;;;;;;;0.5;0.3;;;;;;;14.66;64.62891;947.5309;;;;
2022/11/10 11:11:31;;;;;;;1;0.4;;;;;;;14.81;63.60156;947.5586;;;;
2022/11/10 11:13:57;;;;;;;0.4;0.2;;;;;;;14.89;63.6709;947.5323;;;;
2022/11/10 11:16:22;;;;;;;0.2;0.2;;;;;;;14.91;61.875;947.6953;;;;
2022/11/10 11:18:51;;;;;;;0.2;0.2;;;;;;;15.18;61.29102;947.6494;;;;
2022/11/10 11:21:16;;;;;;;0.8;0.3;;;;;;;15.56;62.34766;947.6033;;;;
2022/11/10 11:23:41;;;;;;;0.7;0.2;;;;;;;16;61.23145;947.6302;;;;
2022/11/10 11:26:06;;;;;;;0.3;0.2;;;;;;;16.16;60.0625;947.697;;;;
2022/11/10 11:28:31;;;;;;;0.2;0.2;;;;;;;16.68;60.38965;947.5834;;;;
2022/11/10 11:30:57;;;;;;;0.9;0.5;;;;;;;16.88;59.63867;947.5862;;;;
2022/11/10 11:33:36;;;;;;;0.8;0.4;;;;;;;16.77;60.06543;947.6021;;;;
2022/11/10 11:36:01;;;;;;;0.3;0.3;;;;;;;16.74;61.06836;947.6607;;;;
2022/11/10 11:38:26;;;;;;;0.5;0.3;;;;;;;17.14;60.89355;947.7031;;;;
2022/11/10 11:40:51;;;;;;;0.5;0.3;;;;;;;19.42;52.99414;947.7021;;;;
2022/11/10 11:43:40;;;;;;;1;0.3;;;;;;;21.29;46.54785;947.6803;;;;
2022/11/10 11:46:06;;;;;;;0.3;0.2;;;;;;;24.15;39.74707;947.7819;;;;
2022/11/10 11:48:32;;;;;;;0.6;0.3;;;;;;;25.75;36.10742;947.8284;;;;
2022/11/10 11:50:57;;;;;;;1;0.4;;;;;;;26.26;34.90625;947.8047;;;;
2022/11/10 11:53:22;;;;;;;0.5;0.3;;;;;;;28.23;32.04102;947.861;;;;
2022/11/10 11:55:52;;;;;;;0.3;0.3;;;;;;;28.66;30.95313;947.7897;;;;
2022/11/10 11:58:20;;;;;;;1.3;0.5;;;;;;;28.97;29.86816;947.8152;;;;
2022/11/10 12:01:25;;;;;;;0.8;0.5;;;;;;;28.57;30.58984;947.7689;;;;
2022/11/10 12:03:51;;;;;;;0.8;0.4;;;;;;;29.06;30.04004;947.8522;;;;
2022/11/10 12:06:20;;;;;;;0.9;0.4;;;;;;;29.31;29.37793;947.8448;;;;
2022/11/10 12:08:48;;;;;;;0.6;0.3;;;;;;;29.16;29.9873;947.8525;;;;
2022/11/10 12:11:13;;;;;;;0.5;0.3;;;;;;;28.31;30.62109;947.8344;;;;
2022/11/10 12:13:38;;;;;;;0.4;0.3;;;;;;;29.18;29.21484;947.7109;;;;
2022/11/10 12:16:07;;;;;;;1.6;0.3;;;;;;;29.01;29.64355;947.6647;;;;
2022/11/10 12:18:35;;;;;;;2.6;0.8;;;;;;;29.43;30.05371;947.6613;;;;
2022/11/10 12:20:58;;;;;;;1.2;0.5;;;;;;;30.07;28.25781;947.537;;;;
2022/11/10 12:23:25;;;;;;;0.7;0.5;;;;;;;29.92;28.10547;947.4992;;;;
2022/11/10 12:25:51;;;;;;;0.6;0.4;;;;;;;30.69;27.79492;947.5712;;;;
2022/11/10 12:28:16;;;;;;;0.3;0.3;;;;;;;30.97;26.84375;947.4983;;;;
2022/11/10 12:30:41;;;;;;;0.7;0.4;;;;;;;31.03;26.73926;947.4705;;;;
2022/11/10 12:33:06;;;;;;;0.4;0.4;;;;;;;30.93;27.05664;947.6177;;;;
2022/11/10 12:35:31;;;;;;;0.5;0.3;;;;;;;29.21;28.15625;947.6407;;;;
2022/11/10 12:37:57;;;;;;;0.6;0.4;;;;;;;27.67;31.01563;947.6497;;;;
2022/11/10 12:40:25;;;;;;;0.7;0.4;;;;;;;26.38;33.44824;947.6258;;;;
2022/11/10 12:42:50;;;;;;;0.6;0.3;;;;;;;27.14;33.00684;947.5269;;;;
2022/11/10 12:45:15;;;;;;;0.4;0.3;;;;;;;27.74;32.05371;947.4778;;;;
2022/11/10 12:47:41;;;;;;;1.2;0.3;;;;;;;28.86;30.24121;947.5087;;;;
2022/11/10 12:50:06;;;;;;;0.8;0.4;;;;;;;28.79;30.12988;947.5745;;;;
2022/11/10 12:52:33;;;;;;;2.3;0.4;;;;;;;29.59;29.01465;947.5145;;;;
2022/11/10 12:54:58;;;;;;;0.8;0.4;;;;;;;30.42;27.6709;947.4803;;;;
2022/11/10 12:57:23;;;;;;;0.5;0.4;;;;;;;31.25;26.48926;947.5016;;;;
2022/11/10 12:59:48;;;;;;;1;0.6;;;;;;;31.04;26.47656;947.4883;;;;
2022/11/10 13:02:14;;;;;;;0.4;0.4;;;;;;;32.38;25.25977;947.6662;;;;
2022/11/10 13:04:41;;;;;;;1.4;0.5;;;;;;;32.03;25.49219;947.5883;;;;
2022/11/10 13:07:06;;;;;;;0.7;0.5;;;;;;;31.92;25.24609;947.6022;;;;
2022/11/10 13:09:33;;;;;;;0.8;0.4;;;;;;;32.07;25.2793;947.5877;;;;
2022/11/10 13:11:58;;;;;;;0.9;0.6;;;;;;;32.13;25.24609;947.5339;;;;
2022/11/10 13:14:23;;;;;;;0.4;0.4;;;;;;;31.85;25.51758;947.5137;;;;
2022/11/10 13:16:50;;;;;;;0.8;0.4;;;;;;;31.98;25.87305;947.5151;;;;
2022/11/10 13:19:18;;;;;;;0.5;0.3;;;;;;;32.11;25.125;947.5289;;;;
2022/11/10 13:21:44;;;;;;;0.5;0.3;;;;;;;32.68;24.24414;947.5231;;;;
2022/11/10 13:24:09;;;;;;;0.8;0.4;;;;;;;32.22;25.01074;947.5172;;;;
2022/11/10 13:26:34;;;;;;;0.8;0.4;;;;;;;32.29;24.84766;947.5438;;;;
2022/11/10 13:28:59;;;;;;;0.4;0.4;;;;;;;32.86;24.31348;947.5115;;;;
2022/11/10 13:31:25;;;;;;;1.5;0.7;;;;;;;32.66;24.6748;947.5641;;;;
2022/11/10 13:33:50;;;;;;;1.2;0.8;;;;;;;31.68;25.93945;947.5223;;;;
2022/11/10 13:36:15;;;;;;;1.3;0.6;;;;;;;31.69;25.66504;947.5158;;;;
2022/11/10 13:38:46;;;;;;;2.5;0.6;;;;;;;31.63;25.78125;947.5313;;;;
2022/11/10 13:41:15;;;;;;;1.1;0.5;;;;;;;32.12;24.94629;947.4504;;;;
2022/11/10 13:43:40;;;;;;;0.6;0.4;;;;;;;32.62;24.50488;947.4713;;;;
2022/11/10 13:46:06;;;;;;;1.1;0.6;;;;;;;32.34;24.80176;947.512;;;;
2022/11/10 13:48:31;;;;;;;0.6;0.4;;;;;;;32.25;25.13281;947.5123;;;;
2022/11/10 13:50:56;;;;;;;1.6;0.6;;;;;;;32.72;24.41406;947.4625;;;;
2022/11/10 13:53:22;;;;;;;1.1;0.6;;;;;;;33.06;23.84473;947.5078;;;;
2022/11/10 13:55:49;;;;;;;1.1;0.6;;;;;;;33.35;23.33008;947.5082;;;;
2022/11/10 13:58:14;;;;;;;2;0.6;;;;;;;32.62;24.09668;947.6066;;;;
2022/11/10 14:00:42;;;;;;;1.1;0.6;;;;;;;32.75;24.23633;947.6567;;;;
2022/11/10 14:03:08;;;;;;;0.9;0.5;;;;;;;32.75;23.82813;947.6735;;;;
2022/11/10 14:05:37;;;;;;;0.4;0.4;;;;;;;32.09;24.68066;947.6962;;;;
2022/11/10 14:07:58;;;;;;;0.3;0.3;;;;;;;31.45;25.63867;947.671;;;;
2022/11/10 14:10:23;;;;;;;0.9;0.5;;;;;;;31.42;25.54199;947.675;;;;
2022/11/10 14:12:49;;;;;;;2.1;0.5;;;;;;;31.71;25.35352;947.7034;;;;
2022/11/10 14:15:13;;;;;;;0.8;0.6;;;;;;;31.32;26.02637;947.7754;;;;
2022/11/10 14:17:43;;;;;;;0.5;0.5;;;;;;;31.05;26.10645;947.7784;;;;
2022/11/10 14:20:13;;;;;;;0.8;0.5;;;;;;;30.49;26.1709;947.7678;;;;
2022/11/10 14:22:39;;;;;;;0.8;0.4;;;;;;;30.33;26.87695;947.8344;;;;
2022/11/10 14:25:04;;;;;;;0.8;0.4;;;;;;;29.81;27.45508;947.87;;;;
2022/11/10 14:27:35;;;;;;;1.9;0.6;;;;;;;29.09;28.2207;947.8432;;;;
2022/11/10 14:30:00;;;;;;;1;0.4;;;;;;;28.17;29.61328;947.8708;;;;
2022/11/10 14:32:25;;;;;;;0.7;0.7;;;;;;;27.05;31.20996;947.824;;;;
2022/11/10 14:34:50;;;;;;;2;1;;;;;;;26.55;32.34766;947.8812;;;;
2022/11/10 14:37:16;;;;;;;0.7;0.5;;;;;;;26.13;33.05078;947.9211;;;;
2022/11/10 14:39:41;;;;;;;2;1.2;;;;;;;24.3;35.75488;947.9153;;;;
2022/11/10 14:42:08;;;;;;;2;1.2;;;;;;;23.81;37.31738;947.9004;;;;
2022/11/10 14:44:33;;;;;;;2.4;1.2;;;;;;;23.18;38.28516;947.8079;;;;
2022/11/10 14:46:58;;;;;;;4.5;1.4;;;;;;;21.53;43.07422;947.8237;;;;
2022/11/10 14:49:24;;;;;;;1.6;1.2;;;;;;;20.42;44.70508;947.8753;;;;
2022/11/10 14:51:50;;;;;;;1.8;1.3;;;;;;;19.48;46.73145;947.9286;;;;
2022/11/10 14:54:15;;;;;;;2.1;1.7;;;;;;;18.59;49.69531;947.8763;;;;
2022/11/10 14:56:41;;;;;;;5.8;2.4;;;;;;;17.98;51.49609;947.8889;;;;
2022/11/10 14:59:07;;;;;;;3.2;1.7;;;;;;;17.32;53.42676;947.9222;;;;
2022/11/10 15:01:33;;;;;;;3.1;1.8;;;;;;;16.9;55.27539;947.9838;;;;
2022/11/10 15:03:58;;;;;;;3.4;1.8;;;;;;;16.44;57.27734;948.0279;;;;
2022/11/10 15:06:23;;;;;;;1.3;0.8;;;;;;;15.97;59.11328;948.0753;;;;
2022/11/10 15:08:50;;;;;;;2.9;0.9;;;;;;;15.72;59.77246;948.117;;;;
2022/11/10 15:11:15;;;;;;;3.7;0.8;;;;;;;15.51;60.62109;948.1208;;;;
2022/11/10 15:13:41;;;;;;;2.1;0.8;;;;;;;14.95;62.21484;948.1816;;;;
2022/11/10 15:16:07;;;;;;;2.5;1.1;;;;;;;14.77;62.66211;948.183;;;;
2022/11/10 15:18:32;;;;;;;1.7;0.9;;;;;;;14.69;62.98438;948.3321;;;;